createdAt,value
2023-06-19T00:00:31.366Z,62.73
2023-06-19T00:02:58.216Z,63.27
2023-06-19T00:05:26.056Z,63.62
2023-06-19T00:07:52.835Z,63.28
2023-06-19T00:10:19.361Z,63.32
2023-06-19T00:12:45.861Z,63.03
2023-06-19T00:15:12.523Z,62.87
2023-06-19T00:17:39.080Z,62.95
2023-06-19T00:20:09.140Z,62.68
2023-06-19T00:22:35.571Z,62.74
2023-06-19T00:25:02.118Z,63.22
2023-06-19T00:27:28.547Z,62.84
2023-06-19T00:29:55.067Z,62.47
2023-06-19T00:32:21.535Z,62.48
2023-06-19T00:34:48.045Z,62.76
2023-06-19T00:37:14.608Z,63.07
2023-06-19T00:39:45.023Z,62.37
2023-06-19T00:42:11.773Z,62.22
2023-06-19T00:44:38.219Z,62.48
2023-06-19T00:47:05.390Z,62.22
2023-06-19T00:49:32.650Z,62.79
2023-06-19T00:51:59.354Z,62.21
2023-06-19T00:54:26.386Z,62.31
2023-06-19T00:56:53.518Z,62.70
2023-06-19T00:59:20.753Z,62.69
2023-06-19T01:01:47.581Z,62.88
2023-06-19T01:04:14.684Z,62.96
2023-06-19T01:06:59.790Z,62.44
2023-06-19T01:09:32.071Z,62.80
2023-06-19T01:12:05.868Z,63.02
2023-06-19T01:14:38.937Z,63.19
2023-06-19T01:17:06.504Z,63.16
2023-06-19T01:19:33.061Z,63.23
2023-06-19T01:22:04.109Z,63.45
2023-06-19T01:24:30.571Z,63.57
2023-06-19T01:26:57.204Z,62.88
2023-06-19T01:29:23.863Z,62.93
2023-06-19T01:31:53.924Z,63.40
2023-06-19T01:34:22.438Z,63.15
2023-06-19T01:36:52.559Z,63.41
2023-06-19T01:39:20.696Z,63.45
2023-06-19T01:41:48.385Z,63.06
2023-06-19T01:44:15.086Z,63.64
2023-06-19T01:46:41.678Z,63.51
2023-06-19T01:49:10.063Z,63.20
2023-06-19T01:51:36.938Z,63.32
2023-06-19T01:54:04.081Z,63.56
2023-06-19T01:56:30.533Z,62.92
2023-06-19T01:58:56.946Z,62.89
2023-06-19T02:01:23.746Z,63.46
2023-06-19T02:03:50.252Z,63.24
2023-06-19T02:06:16.697Z,63.17
2023-06-19T02:08:43.150Z,63.08
2023-06-19T02:11:09.589Z,62.89
2023-06-19T02:13:37.114Z,63.19
2023-06-19T02:16:05.207Z,63.42
2023-06-19T02:18:31.640Z,63.33
2023-06-19T02:20:58.073Z,63.26
2023-06-19T02:23:24.657Z,63.39
2023-06-19T02:25:51.086Z,63.91
2023-06-19T02:28:17.499Z,63.40
2023-06-19T02:30:43.917Z,63.28
2023-06-19T02:33:10.375Z,63.77
2023-06-19T02:35:36.817Z,63.50
2023-06-19T02:38:05.629Z,63.43
2023-06-19T02:40:32.050Z,63.55
2023-06-19T02:42:58.452Z,62.80
2023-06-19T02:45:24.891Z,63.49
2023-06-19T02:47:53.028Z,62.89
2023-06-19T02:50:19.499Z,62.81
2023-06-19T02:52:45.914Z,63.60
2023-06-19T02:55:12.332Z,63.35
2023-06-19T02:57:38.768Z,63.26
2023-06-19T03:00:10.255Z,63.16
2023-06-19T03:02:36.754Z,63.57
2023-06-19T03:05:03.766Z,63.38
2023-06-19T03:07:30.367Z,62.67
2023-06-19T03:09:56.778Z,62.65
2023-06-19T03:12:23.224Z,62.79
2023-06-19T03:14:49.639Z,62.28
2023-06-19T03:17:16.083Z,62.37
2023-06-19T03:19:42.539Z,62.06
2023-06-19T03:22:08.950Z,62.09
2023-06-19T03:24:35.445Z,62.71
2023-06-19T03:27:01.951Z,62.09
2023-06-19T03:29:28.904Z,61.82
2023-06-19T03:31:55.342Z,61.83
2023-06-19T03:34:21.774Z,61.89
2023-06-19T03:36:48.223Z,61.75
2023-06-19T03:39:15.175Z,61.43
2023-06-19T03:41:41.621Z,61.72
2023-06-19T03:44:08.116Z,61.11
2023-06-19T03:46:34.609Z,61.01
2023-06-19T03:49:01.124Z,61.58
2023-06-19T03:51:30.142Z,61.19
2023-06-19T03:53:56.629Z,61.47
2023-06-19T03:56:23.121Z,61.12
2023-06-19T03:58:49.547Z,61.44
2023-06-19T04:01:16.022Z,61.02
2023-06-19T04:03:42.570Z,60.91
2023-06-19T04:06:09.051Z,61.30
2023-06-19T04:08:35.501Z,60.78
2023-06-19T04:11:01.947Z,60.81
2023-06-19T04:13:28.378Z,60.58
2023-06-19T04:15:54.817Z,60.61
2023-06-19T04:18:21.275Z,60.73
2023-06-19T04:20:47.933Z,60.49
2023-06-19T04:23:14.424Z,60.15
2023-06-19T04:25:40.841Z,60.89
2023-06-19T04:28:07.309Z,60.48
2023-06-19T04:30:33.726Z,60.68
2023-06-19T04:33:00.291Z,61.08
2023-06-19T04:35:27.608Z,60.43
2023-06-19T04:37:54.854Z,59.92
2023-06-19T04:40:21.440Z,60.05
2023-06-19T04:42:48.075Z,59.76
2023-06-19T04:45:14.507Z,59.10
2023-06-19T04:47:52.594Z,59.21
2023-06-19T04:50:19.452Z,59.78
2023-06-19T04:52:45.865Z,59.77
2023-06-19T04:55:12.286Z,59.54
2023-06-19T04:57:38.746Z,58.98
2023-06-19T05:00:07.851Z,59.66
2023-06-19T05:02:34.978Z,59.41
2023-06-19T05:05:03.923Z,59.75
2023-06-19T05:07:33.537Z,59.17
2023-06-19T05:10:00.288Z,59.48
2023-06-19T05:12:26.810Z,59.07
2023-06-19T05:14:53.234Z,59.32
2023-06-19T05:17:19.772Z,59.27
2023-06-19T05:19:46.235Z,58.53
2023-06-19T05:22:12.724Z,58.96
2023-06-19T05:24:39.195Z,58.97
2023-06-19T05:27:06.086Z,58.90
2023-06-19T05:29:33.494Z,58.79
2023-06-19T05:31:59.943Z,58.00
2023-06-19T05:34:26.343Z,58.21
2023-06-19T05:36:52.781Z,58.09
2023-06-19T05:39:20.017Z,58.43
2023-06-19T05:41:49.450Z,58.33
2023-06-19T05:44:17.724Z,58.38
2023-06-19T05:46:44.258Z,58.29
2023-06-19T05:49:10.704Z,58.04
2023-06-19T05:51:37.210Z,58.03
2023-06-19T05:54:04.958Z,57.28
2023-06-19T05:56:32.097Z,56.84
2023-06-19T05:58:58.545Z,57.18
2023-06-19T06:01:26.191Z,56.45
2023-06-19T06:03:52.723Z,57.08
2023-06-19T06:06:19.142Z,57.22
2023-06-19T06:08:45.579Z,56.66
2023-06-19T06:11:12.042Z,56.56
2023-06-19T06:13:38.476Z,56.56
2023-06-19T06:16:05.025Z,56.42
2023-06-19T06:18:31.494Z,56.93
2023-06-19T06:21:00.111Z,56.66
2023-06-19T06:23:26.776Z,57.14
2023-06-19T06:25:53.326Z,56.85
2023-06-19T06:28:19.769Z,57.06
2023-06-19T06:30:46.212Z,56.70
2023-06-19T06:33:12.658Z,56.61
2023-06-19T06:35:39.357Z,56.42
2023-06-19T06:38:05.976Z,56.12
2023-06-19T06:40:32.475Z,57.00
2023-06-19T06:42:59.235Z,55.96
2023-06-19T06:45:27.943Z,56.07
2023-06-19T06:47:54.653Z,57.46
2023-06-19T06:50:21.426Z,57.62
2023-06-19T06:52:48.077Z,58.31
2023-06-19T06:55:14.784Z,57.61
2023-06-19T06:57:41.183Z,56.85
2023-06-19T07:00:10.878Z,56.74
2023-06-19T07:02:40.180Z,56.13
2023-06-19T07:05:08.225Z,56.76
2023-06-19T07:07:34.625Z,56.02
2023-06-19T07:10:01.042Z,56.90
2023-06-19T07:12:27.472Z,56.46
2023-06-19T07:14:57.062Z,55.99
2023-06-19T07:17:23.687Z,55.66
2023-06-19T07:19:50.105Z,55.01
2023-06-19T07:22:16.526Z,54.89
2023-06-19T07:24:42.997Z,53.51
2023-06-19T07:27:09.475Z,55.79
2023-06-19T07:29:35.985Z,52.71
2023-06-19T07:32:03.999Z,53.72
2023-06-19T07:34:31.841Z,52.77
2023-06-19T07:36:58.273Z,53.33
2023-06-19T07:39:24.685Z,54.40
2023-06-19T07:41:51.144Z,52.14
2023-06-19T07:44:19.044Z,52.04
2023-06-19T07:46:45.526Z,52.22
2023-06-19T07:49:12.018Z,51.67
2023-06-19T07:51:38.435Z,52.39
2023-06-19T07:54:04.920Z,52.25
2023-06-19T07:56:31.470Z,52.40
2023-06-19T07:58:57.909Z,50.72
2023-06-19T08:01:24.336Z,51.58
2023-06-19T08:03:50.889Z,51.92
2023-06-19T08:06:17.450Z,50.43
2023-06-19T08:08:43.889Z,49.69
2023-06-19T08:11:10.309Z,50.57
2023-06-19T08:13:36.727Z,51.03
2023-06-19T08:16:03.154Z,50.62
2023-06-19T08:18:29.771Z,50.34
2023-06-19T08:20:56.267Z,50.32
2023-06-19T08:23:22.717Z,50.43
2023-06-19T08:25:49.153Z,50.32
2023-06-19T08:28:15.614Z,50.80
2023-06-19T08:30:42.065Z,50.44
2023-06-19T08:33:09.468Z,49.63
2023-06-19T08:35:35.938Z,50.35
2023-06-19T08:38:02.408Z,50.50
2023-06-19T08:40:29.073Z,50.80
2023-06-19T08:42:56.917Z,50.51
2023-06-19T08:45:23.357Z,52.29
2023-06-19T08:47:50.138Z,50.90
2023-06-19T08:50:17.363Z,50.46
2023-06-19T08:52:43.785Z,50.69
2023-06-19T08:55:10.276Z,50.38
2023-06-19T08:57:39.414Z,49.54
2023-06-19T09:00:07.968Z,49.90
2023-06-19T09:02:52.305Z,49.49
2023-06-19T09:05:24.370Z,48.58
2023-06-19T09:07:59.508Z,49.01
2023-06-19T09:10:26.155Z,50.15
2023-06-19T09:13:05.764Z,48.71
2023-06-19T09:15:38.733Z,49.76
2023-06-19T09:18:06.028Z,49.62
2023-06-19T09:20:34.481Z,49.90
2023-06-19T09:23:01.562Z,49.32
2023-06-19T09:25:28.136Z,49.60
2023-06-19T09:27:58.374Z,50.07
2023-06-19T09:30:24.951Z,49.14
2023-06-19T09:32:51.711Z,49.45
2023-06-19T09:35:18.436Z,49.88
2023-06-19T09:37:46.194Z,49.83
2023-06-19T09:40:13.229Z,49.16
2023-06-19T09:42:44.282Z,49.45
2023-06-19T09:45:13.287Z,48.86
2023-06-19T09:47:50.046Z,48.07
2023-06-19T09:50:18.409Z,47.76
2023-06-19T09:52:45.631Z,47.50
2023-06-19T09:55:16.913Z,48.48
2023-06-19T09:57:45.289Z,47.88
2023-06-19T10:00:14.002Z,47.65
2023-06-19T10:02:42.408Z,47.73
2023-06-19T10:05:14.469Z,48.33
2023-06-19T10:07:50.591Z,47.84
2023-06-19T10:10:25.414Z,47.86
2023-06-19T10:12:53.412Z,48.56
2023-06-19T10:15:22.008Z,47.70
2023-06-19T10:17:53.405Z,48.41
2023-06-19T10:20:38.320Z,47.85
2023-06-19T10:23:25.040Z,47.37
2023-06-19T10:25:54.442Z,47.53
2023-06-19T10:28:29.756Z,46.91
2023-06-19T10:31:00.268Z,47.63
2023-06-19T10:33:29.235Z,48.44
2023-06-19T10:35:55.994Z,49.74
2023-06-19T10:38:22.612Z,49.49
2023-06-19T10:40:49.068Z,49.35
2023-06-19T10:43:26.428Z,48.87
2023-06-19T10:45:52.993Z,48.80
2023-06-19T10:48:23.870Z,48.22
2023-06-19T10:50:51.081Z,48.18
2023-06-19T10:53:33.900Z,48.32
2023-06-19T10:56:02.552Z,47.98
2023-06-19T10:58:30.215Z,47.64
2023-06-19T11:00:57.969Z,48.60
2023-06-19T11:03:24.674Z,47.96
2023-06-19T11:05:51.197Z,48.94
2023-06-19T11:08:22.440Z,48.31
2023-06-19T11:10:49.480Z,48.29
2023-06-19T11:13:21.029Z,47.16
2023-06-19T11:15:50.557Z,47.33
2023-06-19T11:18:18.513Z,46.55
2023-06-19T11:20:52.003Z,46.12
2023-06-19T11:23:27.022Z,45.02
2023-06-19T11:25:53.766Z,44.63
2023-06-19T11:28:23.172Z,45.01
2023-06-19T11:30:58.390Z,43.43
2023-06-19T11:33:25.300Z,43.44
2023-06-19T11:35:53.581Z,43.00
2023-06-19T11:38:24.450Z,43.06
2023-06-19T11:40:51.191Z,42.14
2023-06-19T11:43:29.142Z,42.56
2023-06-19T11:46:03.210Z,41.30
2023-06-19T11:48:29.725Z,41.56
2023-06-19T11:50:56.262Z,41.29
2023-06-19T11:53:23.851Z,41.19
2023-06-19T11:55:51.398Z,41.42
2023-06-19T11:58:18.789Z,41.18
2023-06-19T12:00:45.193Z,40.74
2023-06-19T12:03:11.820Z,39.83
2023-06-19T12:05:38.802Z,39.75
2023-06-19T12:08:06.516Z,39.39
2023-06-19T12:10:33.274Z,38.71
2023-06-19T12:12:59.692Z,37.59
2023-06-19T12:15:26.214Z,38.21
2023-06-19T12:17:53.334Z,36.56
2023-06-19T12:20:20.253Z,37.26
2023-06-19T12:22:46.669Z,37.15
2023-06-19T12:25:13.088Z,35.88
2023-06-19T12:27:39.622Z,35.67
2023-06-19T12:30:06.900Z,35.98
2023-06-19T12:32:33.316Z,35.43
2023-06-19T12:34:59.842Z,35.05
2023-06-19T12:37:26.372Z,35.34
2023-06-19T12:39:52.776Z,34.67
2023-06-19T12:42:19.212Z,34.48
2023-06-19T12:44:45.947Z,33.94
2023-06-19T12:47:12.634Z,33.82
2023-06-19T12:49:39.095Z,34.00
2023-06-19T12:52:05.916Z,33.93
2023-06-19T12:54:32.788Z,33.28
2023-06-19T12:56:59.240Z,32.94
2023-06-19T12:59:26.000Z,32.94
2023-06-19T13:01:52.457Z,33.42
2023-06-19T13:04:18.968Z,33.79
2023-06-19T13:06:45.417Z,33.33
2023-06-19T13:09:11.860Z,32.15
2023-06-19T13:11:38.285Z,32.30
2023-06-19T13:14:05.423Z,32.90
2023-06-19T13:16:45.341Z,33.32
2023-06-19T13:19:12.899Z,31.80
2023-06-19T13:21:39.320Z,31.49
2023-06-19T13:24:05.993Z,28.40
2023-06-19T13:26:32.492Z,25.47
2023-06-19T13:28:59.990Z,24.99
2023-06-19T13:31:26.742Z,28.53
2023-06-19T13:33:53.320Z,28.33
2023-06-19T13:36:20.518Z,26.49
2023-06-19T13:38:47.862Z,24.35
2023-06-19T13:41:14.303Z,23.91
2023-06-19T13:43:41.194Z,22.38
2023-06-19T13:46:09.182Z,21.53
2023-06-19T13:48:35.579Z,19.22
2023-06-19T13:51:02.033Z,21.07
2023-06-19T13:53:30.757Z,22.18
2023-06-19T13:55:57.224Z,23.06
2023-06-19T13:58:23.681Z,24.08
2023-06-19T14:00:50.167Z,22.06
2023-06-19T14:03:17.278Z,23.06
2023-06-19T14:05:44.907Z,23.50
2023-06-19T14:08:11.385Z,25.74
2023-06-19T14:10:38.058Z,23.39
2023-06-19T14:13:04.492Z,24.96
2023-06-19T14:15:30.920Z,27.69
2023-06-19T14:17:57.403Z,26.36
2023-06-19T14:20:24.007Z,25.37
2023-06-19T14:22:50.615Z,22.84
2023-06-19T14:25:17.003Z,22.60
2023-06-19T14:27:43.457Z,25.43
2023-06-19T14:30:10.422Z,22.65
2023-06-19T14:32:40.349Z,21.45
2023-06-19T14:35:07.640Z,24.77
2023-06-19T14:37:34.222Z,25.47
2023-06-19T14:40:00.676Z,26.43
2023-06-19T14:42:27.230Z,23.07
2023-06-19T14:44:53.660Z,22.19
2023-06-19T14:47:20.142Z,22.38
2023-06-19T14:49:46.913Z,26.16
2023-06-19T14:52:13.339Z,26.41
2023-06-19T14:54:39.854Z,25.99
2023-06-19T14:57:06.614Z,23.49
2023-06-19T14:59:33.032Z,22.14
2023-06-19T15:01:59.469Z,24.85
2023-06-19T15:04:26.025Z,22.46
2023-06-19T15:06:52.502Z,24.45
2023-06-19T15:09:18.915Z,21.34
2023-06-19T15:11:45.316Z,20.67
2023-06-19T15:14:11.792Z,21.21
2023-06-19T15:16:38.320Z,21.76
2023-06-19T15:19:04.927Z,22.87
2023-06-19T15:21:31.392Z,20.13
2023-06-19T15:23:57.968Z,22.57
2023-06-19T15:26:24.673Z,22.96
2023-06-19T15:28:54.437Z,26.99
2023-06-19T15:31:24.401Z,25.66
2023-06-19T15:33:51.200Z,24.83
2023-06-19T15:36:18.093Z,24.57
2023-06-19T15:38:45.052Z,26.45
2023-06-19T15:41:11.465Z,28.50
2023-06-19T15:43:38.700Z,27.51
2023-06-19T15:46:07.212Z,26.28
2023-06-19T15:48:34.085Z,25.66
2023-06-19T15:51:00.528Z,24.05
2023-06-19T15:53:26.927Z,22.90
2023-06-19T15:55:53.326Z,23.52
2023-06-19T15:58:19.734Z,24.58
2023-06-19T16:00:46.200Z,25.68
2023-06-19T16:03:12.670Z,25.28
2023-06-19T16:05:39.161Z,25.56
2023-06-19T16:08:05.680Z,24.56
2023-06-19T16:10:32.205Z,24.07
2023-06-19T16:12:58.634Z,23.52
2023-06-19T16:15:28.909Z,24.38
2023-06-19T16:17:56.343Z,25.35
2023-06-19T16:20:23.433Z,25.97
2023-06-19T16:22:53.277Z,27.00
2023-06-19T16:25:19.751Z,23.75
2023-06-19T16:27:46.214Z,21.47
2023-06-19T16:30:12.795Z,20.97
2023-06-19T16:32:39.332Z,23.21
2023-06-19T16:35:06.379Z,24.45
2023-06-19T16:37:32.868Z,23.60
2023-06-19T16:39:59.313Z,24.42
2023-06-19T16:42:26.635Z,26.57
2023-06-19T16:44:54.326Z,27.35
2023-06-19T16:47:21.064Z,28.75
2023-06-19T16:49:47.535Z,30.14
2023-06-19T16:52:14.137Z,31.69
2023-06-19T16:54:40.604Z,31.76
2023-06-19T16:57:07.144Z,32.25
2023-06-19T16:59:33.561Z,32.55
2023-06-19T17:02:00.030Z,33.24
2023-06-19T17:04:26.446Z,33.46
2023-06-19T17:06:52.859Z,33.24
2023-06-19T17:09:19.263Z,32.89
2023-06-19T17:11:45.704Z,33.11
2023-06-19T17:14:12.122Z,33.10
2023-06-19T17:16:38.574Z,33.07
2023-06-19T17:19:06.502Z,32.88
2023-06-19T17:21:33.247Z,32.71
2023-06-19T17:23:59.681Z,33.28
2023-06-19T17:26:26.217Z,33.96
2023-06-19T17:28:52.621Z,35.09
2023-06-19T17:31:19.026Z,35.42
2023-06-19T17:33:45.422Z,34.17
2023-06-19T17:36:11.821Z,34.40
2023-06-19T17:38:38.290Z,34.75
2023-06-19T17:41:05.390Z,35.82
2023-06-19T17:43:31.873Z,35.76
2023-06-19T17:45:58.319Z,35.63
2023-06-19T17:48:24.760Z,36.71
2023-06-19T17:50:51.176Z,37.61
2023-06-19T17:53:17.602Z,37.62
2023-06-19T17:55:44.373Z,37.71
2023-06-19T17:58:10.879Z,38.49
2023-06-19T18:00:37.341Z,38.60
2023-06-19T18:03:05.441Z,39.41
2023-06-19T18:05:31.973Z,38.84
2023-06-19T18:07:58.416Z,39.32
2023-06-19T18:10:25.034Z,39.79
2023-06-19T18:12:51.569Z,39.32
2023-06-19T18:15:18.112Z,39.67
2023-06-19T18:17:44.573Z,39.44
2023-06-19T18:20:11.920Z,40.05
2023-06-19T18:22:39.617Z,39.25
2023-06-19T18:25:06.460Z,38.60
2023-06-19T18:27:33.399Z,39.21
2023-06-19T18:30:02.221Z,40.29
2023-06-19T18:32:30.785Z,41.01
2023-06-19T18:34:57.238Z,40.60
2023-06-19T18:37:23.698Z,40.21
2023-06-19T18:39:52.976Z,39.98
2023-06-19T18:42:19.380Z,40.62
2023-06-19T18:44:45.781Z,40.82
2023-06-19T18:47:12.181Z,41.21
2023-06-19T18:49:38.612Z,41.16
2023-06-19T18:52:05.508Z,40.84
2023-06-19T18:54:31.919Z,42.05
2023-06-19T18:56:58.341Z,42.83
2023-06-19T18:59:24.785Z,42.45
2023-06-19T19:01:51.252Z,43.36
2023-06-19T19:04:17.778Z,43.46
2023-06-19T19:06:44.183Z,43.10
2023-06-19T19:09:10.689Z,43.25
2023-06-19T19:11:37.151Z,43.80
2023-06-19T19:14:03.640Z,43.96
2023-06-19T19:16:30.101Z,44.22
2023-06-19T19:18:56.527Z,44.47
2023-06-19T19:21:22.956Z,45.46
2023-06-19T19:23:49.405Z,44.23
2023-06-19T19:26:15.840Z,45.19
2023-06-19T19:28:42.249Z,45.47
2023-06-19T19:31:08.715Z,45.76
2023-06-19T19:33:35.191Z,46.01
2023-06-19T19:36:02.300Z,45.76
2023-06-19T19:38:28.707Z,45.61
2023-06-19T19:40:55.109Z,45.86
2023-06-19T19:43:21.514Z,46.55
2023-06-19T19:45:48.054Z,47.06
2023-06-19T19:48:14.552Z,47.27
2023-06-19T19:50:40.961Z,47.31
2023-06-19T19:53:07.357Z,46.88
2023-06-19T19:55:33.825Z,47.14
2023-06-19T19:58:01.952Z,47.36
2023-06-19T20:00:29.158Z,47.85
2023-06-19T20:02:55.649Z,48.30
2023-06-19T20:05:22.136Z,48.09
2023-06-19T20:07:48.576Z,47.54
2023-06-19T20:10:15.080Z,48.86
2023-06-19T20:12:41.484Z,49.64
2023-06-19T20:15:08.616Z,48.97
2023-06-19T20:17:35.078Z,48.58
2023-06-19T20:20:04.932Z,49.10
2023-06-19T20:22:31.410Z,49.19
2023-06-19T20:24:57.836Z,48.89
2023-06-19T20:27:24.247Z,49.19
2023-06-19T20:29:50.652Z,48.99
2023-06-19T20:32:17.060Z,49.89
2023-06-19T20:34:43.488Z,50.27
2023-06-19T20:37:09.993Z,49.91
2023-06-19T20:39:36.417Z,50.00
2023-06-19T20:42:03.600Z,50.54
2023-06-19T20:44:30.288Z,50.14
2023-06-19T20:46:58.523Z,49.81
2023-06-19T20:49:26.311Z,50.63
2023-06-19T20:51:52.768Z,50.65
2023-06-19T20:54:20.078Z,50.58
2023-06-19T20:56:46.466Z,50.66
2023-06-19T20:59:13.057Z,50.46
2023-06-19T21:01:40.474Z,50.94
2023-06-19T21:04:07.094Z,50.56
2023-06-19T21:06:34.592Z,50.86
2023-06-19T21:09:04.058Z,50.58
2023-06-19T21:11:30.522Z,50.82
2023-06-19T21:13:56.958Z,51.33
2023-06-19T21:16:23.873Z,51.60
2023-06-19T21:18:51.285Z,51.46
2023-06-19T21:21:17.714Z,51.43
2023-06-19T21:23:44.134Z,52.08
2023-06-19T21:26:10.550Z,52.24
2023-06-19T21:28:36.951Z,52.50
2023-06-19T21:31:03.350Z,52.09
2023-06-19T21:33:33.180Z,52.55
2023-06-19T21:35:59.639Z,52.42
2023-06-19T21:38:28.711Z,52.59
2023-06-19T21:40:55.141Z,52.25
2023-06-19T21:43:21.585Z,52.47
2023-06-19T21:45:48.147Z,53.60
2023-06-19T21:48:14.754Z,52.73
2023-06-19T21:50:41.218Z,53.16
2023-06-19T21:53:07.655Z,53.00
2023-06-19T21:55:34.162Z,53.71
2023-06-19T21:58:01.009Z,53.35
2023-06-19T22:00:28.956Z,53.19
2023-06-19T22:02:57.062Z,53.78
2023-06-19T22:05:23.576Z,54.27
2023-06-19T22:07:50.332Z,53.97
2023-06-19T22:10:17.126Z,54.31
2023-06-19T22:12:43.535Z,54.29
2023-06-19T22:15:10.411Z,54.01
2023-06-19T22:17:36.937Z,54.30
2023-06-19T22:20:04.589Z,54.42
2023-06-19T22:22:31.033Z,54.05
2023-06-19T22:24:57.485Z,54.37
2023-06-19T22:27:23.924Z,54.58
2023-06-19T22:29:50.362Z,54.62
2023-06-19T22:32:16.797Z,54.87
2023-06-19T22:34:43.220Z,54.52
2023-06-19T22:37:09.668Z,55.02
2023-06-19T22:39:36.074Z,54.92
2023-06-19T22:42:03.215Z,55.00
2023-06-19T22:44:29.632Z,54.84
2023-06-19T22:46:56.227Z,55.32
2023-06-19T22:49:22.620Z,55.98
2023-06-19T22:51:49.017Z,55.84
2023-06-19T22:54:15.435Z,55.30
2023-06-19T22:56:41.884Z,55.33
2023-06-19T22:59:08.319Z,55.54
2023-06-19T23:01:34.975Z,55.57
2023-06-19T23:04:01.523Z,55.32
2023-06-19T23:06:27.942Z,55.82
2023-06-19T23:08:54.343Z,55.89
2023-06-19T23:11:20.744Z,56.60
2023-06-19T23:13:47.234Z,56.46
2023-06-19T23:16:13.673Z,56.55
2023-06-19T23:18:40.082Z,56.69
2023-06-19T23:21:06.487Z,57.42
2023-06-19T23:23:33.572Z,56.75
2023-06-19T23:26:02.603Z,56.89
2023-06-19T23:28:32.480Z,56.60
2023-06-19T23:30:59.808Z,56.31
2023-06-19T23:33:26.984Z,56.80
2023-06-19T23:35:57.309Z,56.98
2023-06-19T23:38:25.233Z,57.42
2023-06-19T23:40:52.100Z,57.06
2023-06-19T23:43:19.030Z,57.13
2023-06-19T23:45:46.021Z,56.72
2023-06-19T23:48:12.750Z,56.92
2023-06-19T23:50:39.681Z,57.56
2023-06-19T23:53:06.369Z,57.55
2023-06-19T23:55:32.788Z,57.55
2023-06-19T23:57:59.170Z,58.39
